sensor_id;sensor_type;location;lat;lon;timestamp;P1;durP1;ratioP1;P2;durP2;ratioP2
16450;SDS011;12243;42.708;23.310;2022-09-27T00:01:34;10.00;;;9.17;;
16450;SDS011;12243;42.708;23.310;2022-09-27T00:04:02;9.90;;;9.00;;
16450;SDS011;12243;42.708;23.310;2022-09-27T00:06:30;10.47;;;9.37;;
16450;SDS011;12243;42.708;23.310;2022-09-27T00:08:58;10.20;;;9.20;;
16450;SDS011;12243;42.708;23.310;2022-09-27T00:11:26;9.30;;;8.37;;
16450;SDS011;12243;42.708;23.310;2022-09-27T00:13:54;10.00;;;9.20;;
16450;SDS011;12243;42.708;23.310;2022-09-27T00:16:23;9.73;;;8.83;;
16450;SDS011;12243;42.708;23.310;2022-09-27T00:18:51;8.83;;;8.00;;
16450;SDS011;12243;42.708;23.310;2022-09-27T00:21:20;9.63;;;8.77;;
16450;SDS011;12243;42.708;23.310;2022-09-27T00:23:47;11.13;;;9.50;;
16450;SDS011;12243;42.708;23.310;2022-09-27T00:26:14;10.97;;;9.97;;
16450;SDS011;12243;42.708;23.310;2022-09-27T00:28:41;11.70;;;10.37;;
16450;SDS011;12243;42.708;23.310;2022-09-27T00:31:13;11.23;;;9.50;;
16450;SDS011;12243;42.708;23.310;2022-09-27T00:33:47;11.30;;;9.77;;
16450;SDS011;12243;42.708;23.310;2022-09-27T00:36:14;10.03;;;9.23;;
16450;SDS011;12243;42.708;23.310;2022-09-27T00:38:43;10.60;;;9.60;;
16450;SDS011;12243;42.708;23.310;2022-09-27T00:41:12;11.03;;;9.13;;
16450;SDS011;12243;42.708;23.310;2022-09-27T00:43:42;9.97;;;9.07;;
16450;SDS011;12243;42.708;23.310;2022-09-27T00:46:12;10.20;;;9.20;;
16450;SDS011;12243;42.708;23.310;2022-09-27T00:48:44;9.23;;;8.37;;
16450;SDS011;12243;42.708;23.310;2022-09-27T00:51:13;11.60;;;8.83;;
16450;SDS011;12243;42.708;23.310;2022-09-27T00:53:41;9.27;;;8.37;;
16450;SDS011;12243;42.708;23.310;2022-09-27T00:56:17;9.70;;;8.77;;
16450;SDS011;12243;42.708;23.310;2022-09-27T00:58:49;9.73;;;8.83;;
16450;SDS011;12243;42.708;23.310;2022-09-27T01:01:20;10.20;;;9.20;;
16450;SDS011;12243;42.708;23.310;2022-09-27T01:03:50;11.27;;;10.13;;
16450;SDS011;12243;42.708;23.310;2022-09-27T01:06:21;10.27;;;9.17;;
16450;SDS011;12243;42.708;23.310;2022-09-27T01:08:50;10.10;;;9.20;;
16450;SDS011;12243;42.708;23.310;2022-09-27T01:11:18;11.43;;;9.80;;
16450;SDS011;12243;42.708;23.310;2022-09-27T01:13:58;10.83;;;9.73;;
16450;SDS011;12243;42.708;23.310;2022-09-27T01:16:38;10.10;;;9.20;;
16450;SDS011;12243;42.708;23.310;2022-09-27T01:19:16;10.10;;;9.30;;
16450;SDS011;12243;42.708;23.310;2022-09-27T01:21:58;10.20;;;9.30;;
16450;SDS011;12243;42.708;23.310;2022-09-27T01:24:43;9.87;;;9.00;;
16450;SDS011;12243;42.708;23.310;2022-09-27T01:30:31;10.27;;;9.17;;
16450;SDS011;12243;42.708;23.310;2022-09-27T01:33:09;11.87;;;9.63;;
16450;SDS011;12243;42.708;23.310;2022-09-27T01:35:47;10.30;;;9.50;;
16450;SDS011;12243;42.708;23.310;2022-09-27T01:38:25;11.47;;;10.37;;
16450;SDS011;12243;42.708;23.310;2022-09-27T01:41:02;10.50;;;9.50;;
16450;SDS011;12243;42.708;23.310;2022-09-27T01:43:52;11.57;;;9.93;;
16450;SDS011;12243;42.708;23.310;2022-09-27T01:46:28;11.03;;;10.10;;
16450;SDS011;12243;42.708;23.310;2022-09-27T01:49:15;10.67;;;9.83;;
16450;SDS011;12243;42.708;23.310;2022-09-27T01:51:44;11.27;;;10.17;;
16450;SDS011;12243;42.708;23.310;2022-09-27T01:54:15;10.97;;;9.83;;
16450;SDS011;12243;42.708;23.310;2022-09-27T01:57:10;11.87;;;10.63;;
16450;SDS011;12243;42.708;23.310;2022-09-27T01:59:44;12.33;;;10.57;;
16450;SDS011;12243;42.708;23.310;2022-09-27T02:02:35;11.57;;;10.53;;
16450;SDS011;12243;42.708;23.310;2022-09-27T02:05:33;12.00;;;10.90;;
16450;SDS011;12243;42.708;23.310;2022-09-27T02:08:19;11.77;;;10.67;;
16450;SDS011;12243;42.708;23.310;2022-09-27T02:10:51;11.80;;;10.80;;
16450;SDS011;12243;42.708;23.310;2022-09-27T02:13:25;12.73;;;11.53;;
16450;SDS011;12243;42.708;23.310;2022-09-27T02:16:20;11.93;;;10.73;;
16450;SDS011;12243;42.708;23.310;2022-09-27T02:19:01;11.70;;;10.70;;
16450;SDS011;12243;42.708;23.310;2022-09-27T02:21:39;12.07;;;11.07;;
16450;SDS011;12243;42.708;23.310;2022-09-27T02:24:10;12.97;;;11.87;;
16450;SDS011;12243;42.708;23.310;2022-09-27T02:26:43;12.90;;;11.60;;
16450;SDS011;12243;42.708;23.310;2022-09-27T02:29:14;13.30;;;11.83;;
16450;SDS011;12243;42.708;23.310;2022-09-27T02:31:49;16.43;;;12.17;;
16450;SDS011;12243;42.708;23.310;2022-09-27T02:34:20;12.87;;;11.37;;
16450;SDS011;12243;42.708;23.310;2022-09-27T02:36:50;12.53;;;11.37;;
16450;SDS011;12243;42.708;23.310;2022-09-27T02:39:18;13.63;;;12.10;;
16450;SDS011;12243;42.708;23.310;2022-09-27T02:41:52;13.37;;;12.17;;
16450;SDS011;12243;42.708;23.310;2022-09-27T02:44:22;13.63;;;12.33;;
16450;SDS011;12243;42.708;23.310;2022-09-27T02:46:55;13.53;;;12.23;;
16450;SDS011;12243;42.708;23.310;2022-09-27T02:53:15;12.73;;;11.53;;
16450;SDS011;12243;42.708;23.310;2022-09-27T02:56:00;13.20;;;11.93;;
16450;SDS011;12243;42.708;23.310;2022-09-27T02:59:04;13.20;;;11.90;;
16450;SDS011;12243;42.708;23.310;2022-09-27T03:02:03;12.60;;;11.37;;
16450;SDS011;12243;42.708;23.310;2022-09-27T03:04:54;12.40;;;11.30;;
16450;SDS011;12243;42.708;23.310;2022-09-27T03:07:26;12.03;;;11.03;;
16450;SDS011;12243;42.708;23.310;2022-09-27T03:09:53;13.40;;;11.63;;
16450;SDS011;12243;42.708;23.310;2022-09-27T03:12:21;13.00;;;11.80;;
16450;SDS011;12243;42.708;23.310;2022-09-27T03:14:51;11.80;;;10.80;;
16450;SDS011;12243;42.708;23.310;2022-09-27T03:17:53;12.30;;;11.20;;
16450;SDS011;12243;42.708;23.310;2022-09-27T03:20:39;13.30;;;12.10;;
16450;SDS011;12243;42.708;23.310;2022-09-27T03:23:19;13.63;;;12.33;;
16450;SDS011;12243;42.708;23.310;2022-09-27T03:25:46;12.03;;;11.03;;
16450;SDS011;12243;42.708;23.310;2022-09-27T03:28:14;13.13;;;11.93;;
16450;SDS011;12243;42.708;23.310;2022-09-27T03:30:43;14.53;;;13.20;;
16450;SDS011;12243;42.708;23.310;2022-09-27T03:33:13;13.90;;;12.70;;
16450;SDS011;12243;42.708;23.310;2022-09-27T03:35:45;13.77;;;12.33;;
16450;SDS011;12243;42.708;23.310;2022-09-27T03:38:13;13.80;;;12.53;;
16450;SDS011;12243;42.708;23.310;2022-09-27T03:40:42;13.40;;;11.97;;
16450;SDS011;12243;42.708;23.310;2022-09-27T03:43:11;13.83;;;12.43;;
16450;SDS011;12243;42.708;23.310;2022-09-27T03:45:38;13.03;;;11.93;;
16450;SDS011;12243;42.708;23.310;2022-09-27T03:48:08;12.90;;;11.70;;
16450;SDS011;12243;42.708;23.310;2022-09-27T03:50:35;12.30;;;11.27;;
16450;SDS011;12243;42.708;23.310;2022-09-27T03:53:03;13.33;;;11.80;;
16450;SDS011;12243;42.708;23.310;2022-09-27T03:55:30;11.90;;;11.00;;
16450;SDS011;12243;42.708;23.310;2022-09-27T03:57:58;11.87;;;10.87;;
16450;SDS011;12243;42.708;23.310;2022-09-27T04:00:25;12.03;;;11.00;;
16450;SDS011;12243;42.708;23.310;2022-09-27T04:02:53;13.47;;;10.53;;
16450;SDS011;12243;42.708;23.310;2022-09-27T04:05:21;11.73;;;10.60;;
16450;SDS011;12243;42.708;23.310;2022-09-27T04:07:49;12.07;;;10.90;;
16450;SDS011;12243;42.708;23.310;2022-09-27T04:10:18;12.07;;;10.87;;
16450;SDS011;12243;42.708;23.310;2022-09-27T04:12:45;13.07;;;11.37;;
16450;SDS011;12243;42.708;23.310;2022-09-27T04:15:14;13.90;;;11.27;;
16450;SDS011;12243;42.708;23.310;2022-09-27T04:17:47;13.17;;;11.97;;
16450;SDS011;12243;42.708;23.310;2022-09-27T04:20:26;12.20;;;11.13;;
16450;SDS011;12243;42.708;23.310;2022-09-27T04:22:54;12.47;;;11.27;;
16450;SDS011;12243;42.708;23.310;2022-09-27T04:25:21;12.80;;;11.30;;
16450;SDS011;12243;42.708;23.310;2022-09-27T04:27:51;13.07;;;11.67;;
16450;SDS011;12243;42.708;23.310;2022-09-27T04:30:20;12.17;;;11.17;;
16450;SDS011;12243;42.708;23.310;2022-09-27T04:33:08;13.53;;;12.23;;
16450;SDS011;12243;42.708;23.310;2022-09-27T04:35:53;13.23;;;11.87;;
16450;SDS011;12243;42.708;23.310;2022-09-27T04:38:45;14.77;;;12.47;;
16450;SDS011;12243;42.708;23.310;2022-09-27T04:41:17;15.50;;;12.77;;
16450;SDS011;12243;42.708;23.310;2022-09-27T04:43:45;12.53;;;11.43;;
16450;SDS011;12243;42.708;23.310;2022-09-27T04:46:14;15.47;;;12.33;;
16450;SDS011;12243;42.708;23.310;2022-09-27T04:48:42;14.07;;;12.60;;
16450;SDS011;12243;42.708;23.310;2022-09-27T04:51:09;14.83;;;13.33;;
16450;SDS011;12243;42.708;23.310;2022-09-27T04:53:42;14.13;;;12.90;;
16450;SDS011;12243;42.708;23.310;2022-09-27T04:56:10;14.10;;;12.90;;
16450;SDS011;12243;42.708;23.310;2022-09-27T04:58:38;14.03;;;12.77;;
16450;SDS011;12243;42.708;23.310;2022-09-27T05:01:05;14.77;;;13.37;;
16450;SDS011;12243;42.708;23.310;2022-09-27T05:03:53;14.37;;;13.07;;
16450;SDS011;12243;42.708;23.310;2022-09-27T05:06:20;15.47;;;14.00;;
16450;SDS011;12243;42.708;23.310;2022-09-27T05:08:47;14.97;;;13.47;;
16450;SDS011;12243;42.708;23.310;2022-09-27T05:11:17;13.83;;;12.47;;
16450;SDS011;12243;42.708;23.310;2022-09-27T05:14:07;15.00;;;13.50;;
16450;SDS011;12243;42.708;23.310;2022-09-27T05:16:47;14.03;;;12.23;;
16450;SDS011;12243;42.708;23.310;2022-09-27T05:19:34;14.40;;;12.97;;
16450;SDS011;12243;42.708;23.310;2022-09-27T05:22:28;13.40;;;12.20;;
16450;SDS011;12243;42.708;23.310;2022-09-27T05:24:55;12.57;;;11.37;;
16450;SDS011;12243;42.708;23.310;2022-09-27T05:27:23;12.40;;;11.40;;
16450;SDS011;12243;42.708;23.310;2022-09-27T05:29:50;16.50;;;11.27;;
16450;SDS011;12243;42.708;23.310;2022-09-27T05:32:22;11.63;;;10.67;;
16450;SDS011;12243;42.708;23.310;2022-09-27T05:35:14;14.03;;;12.67;;
16450;SDS011;12243;42.708;23.310;2022-09-27T05:37:41;13.63;;;12.43;;
16450;SDS011;12243;42.708;23.310;2022-09-27T05:40:09;13.27;;;12.17;;
16450;SDS011;12243;42.708;23.310;2022-09-27T05:42:37;12.90;;;11.40;;
16450;SDS011;12243;42.708;23.310;2022-09-27T05:45:05;13.30;;;12.00;;
16450;SDS011;12243;42.708;23.310;2022-09-27T05:47:34;12.80;;;11.57;;
16450;SDS011;12243;42.708;23.310;2022-09-27T05:50:01;13.73;;;12.30;;
16450;SDS011;12243;42.708;23.310;2022-09-27T05:52:29;14.33;;;13.13;;
16450;SDS011;12243;42.708;23.310;2022-09-27T05:54:56;13.93;;;12.53;;
16450;SDS011;12243;42.708;23.310;2022-09-27T05:57:23;13.77;;;12.43;;
16450;SDS011;12243;42.708;23.310;2022-09-27T05:59:53;14.83;;;13.13;;
16450;SDS011;12243;42.708;23.310;2022-09-27T06:02:20;14.87;;;13.43;;
16450;SDS011;12243;42.708;23.310;2022-09-27T06:05:06;15.40;;;14.03;;
16450;SDS011;12243;42.708;23.310;2022-09-27T06:07:37;16.27;;;13.83;;
16450;SDS011;12243;42.708;23.310;2022-09-27T06:10:09;16.90;;;15.30;;
16450;SDS011;12243;42.708;23.310;2022-09-27T06:12:36;16.90;;;15.17;;
16450;SDS011;12243;42.708;23.310;2022-09-27T06:15:12;14.67;;;13.47;;
16450;SDS011;12243;42.708;23.310;2022-09-27T06:17:42;18.97;;;13.97;;
16450;SDS011;12243;42.708;23.310;2022-09-27T06:20:15;14.97;;;13.53;;
16450;SDS011;12243;42.708;23.310;2022-09-27T06:22:45;14.30;;;13.07;;
16450;SDS011;12243;42.708;23.310;2022-09-27T06:25:12;16.30;;;13.80;;
16450;SDS011;12243;42.708;23.310;2022-09-27T06:27:55;13.23;;;12.03;;
16450;SDS011;12243;42.708;23.310;2022-09-27T06:30:26;13.97;;;12.70;;
16450;SDS011;12243;42.708;23.310;2022-09-27T06:32:54;13.63;;;12.43;;
16450;SDS011;12243;42.708;23.310;2022-09-27T06:35:29;14.80;;;13.43;;
16450;SDS011;12243;42.708;23.310;2022-09-27T06:37:58;16.23;;;14.52;;
16450;SDS011;12243;42.708;23.310;2022-09-27T06:40:29;14.67;;;13.20;;
16450;SDS011;12243;42.708;23.310;2022-09-27T06:43:34;16.10;;;14.60;;
16450;SDS011;12243;42.708;23.310;2022-09-27T06:46:17;15.23;;;13.77;;
16450;SDS011;12243;42.708;23.310;2022-09-27T06:49:04;15.97;;;14.33;;
16450;SDS011;12243;42.708;23.310;2022-09-27T06:51:31;15.97;;;14.43;;
16450;SDS011;12243;42.708;23.310;2022-09-27T06:54:00;16.77;;;15.07;;
16450;SDS011;12243;42.708;23.310;2022-09-27T06:56:27;18.03;;;16.23;;
16450;SDS011;12243;42.708;23.310;2022-09-27T06:58:54;20.10;;;17.17;;
16450;SDS011;12243;42.708;23.310;2022-09-27T07:01:41;21.83;;;17.33;;
16450;SDS011;12243;42.708;23.310;2022-09-27T07:04:26;18.97;;;17.10;;
16450;SDS011;12243;42.708;23.310;2022-09-27T07:07:22;18.07;;;16.17;;
16450;SDS011;12243;42.708;23.310;2022-09-27T07:09:50;21.70;;;17.50;;
16450;SDS011;12243;42.708;23.310;2022-09-27T07:12:18;19.33;;;17.30;;
16450;SDS011;12243;42.708;23.310;2022-09-27T07:14:48;19.03;;;17.10;;
16450;SDS011;12243;42.708;23.310;2022-09-27T07:17:17;16.80;;;15.10;;
16450;SDS011;12243;42.708;23.310;2022-09-27T07:19:46;17.70;;;15.90;;
16450;SDS011;12243;42.708;23.310;2022-09-27T07:22:13;17.93;;;16.13;;
16450;SDS011;12243;42.708;23.310;2022-09-27T07:24:42;16.80;;;15.30;;
16450;SDS011;12243;42.708;23.310;2022-09-27T07:27:12;18.57;;;16.03;;
16450;SDS011;12243;42.708;23.310;2022-09-27T07:29:39;17.63;;;15.80;;
16450;SDS011;12243;42.708;23.310;2022-09-27T07:32:06;16.87;;;15.13;;
16450;SDS011;12243;42.708;23.310;2022-09-27T07:34:36;20.43;;;17.00;;
16450;SDS011;12243;42.708;23.310;2022-09-27T07:37:04;19.50;;;17.60;;
16450;SDS011;12243;42.708;23.310;2022-09-27T07:39:36;19.53;;;17.43;;
16450;SDS011;12243;42.708;23.310;2022-09-27T07:42:03;21.03;;;18.20;;
16450;SDS011;12243;42.708;23.310;2022-09-27T07:44:33;21.47;;;17.20;;
16450;SDS011;12243;42.708;23.310;2022-09-27T07:47:36;19.87;;;17.83;;
16450;SDS011;12243;42.708;23.310;2022-09-27T07:50:11;18.47;;;16.77;;
16450;SDS011;12243;42.708;23.310;2022-09-27T07:53:10;20.38;;;15.55;;
16450;SDS011;12243;42.708;23.310;2022-09-27T07:55:49;21.13;;;16.53;;
16450;SDS011;12243;42.708;23.310;2022-09-27T07:58:28;15.77;;;14.27;;
16450;SDS011;12243;42.708;23.310;2022-09-27T08:01:01;16.42;;;14.98;;
16450;SDS011;12243;42.708;23.310;2022-09-27T08:03:28;17.10;;;13.40;;
16450;SDS011;12243;42.708;23.310;2022-09-27T08:06:00;17.37;;;15.77;;
16450;SDS011;12243;42.708;23.310;2022-09-27T08:08:28;17.67;;;15.87;;
16450;SDS011;12243;42.708;23.310;2022-09-27T08:10:56;23.03;;;16.47;;
16450;SDS011;12243;42.708;23.310;2022-09-27T08:13:23;17.53;;;15.67;;
16450;SDS011;12243;42.708;23.310;2022-09-27T08:15:52;18.37;;;15.43;;
16450;SDS011;12243;42.708;23.310;2022-09-27T08:18:25;16.83;;;15.13;;
16450;SDS011;12243;42.708;23.310;2022-09-27T08:20:54;16.57;;;14.97;;
16450;SDS011;12243;42.708;23.310;2022-09-27T08:23:28;17.37;;;15.70;;
16450;SDS011;12243;42.708;23.310;2022-09-27T08:26:15;18.77;;;17.00;;
16450;SDS011;12243;42.708;23.310;2022-09-27T08:28:51;20.30;;;17.47;;
16450;SDS011;12243;42.708;23.310;2022-09-27T08:31:22;18.10;;;16.30;;
16450;SDS011;12243;42.708;23.310;2022-09-27T08:33:53;19.70;;;17.70;;
16450;SDS011;12243;42.708;23.310;2022-09-27T08:36:21;18.23;;;16.43;;
16450;SDS011;12243;42.708;23.310;2022-09-27T08:38:48;16.23;;;14.73;;
16450;SDS011;12243;42.708;23.310;2022-09-27T08:41:20;16.90;;;15.40;;
16450;SDS011;12243;42.708;23.310;2022-09-27T08:44:03;14.23;;;12.93;;
16450;SDS011;12243;42.708;23.310;2022-09-27T08:46:48;15.18;;;13.70;;
16450;SDS011;12243;42.708;23.310;2022-09-27T08:49:29;14.37;;;12.90;;
16450;SDS011;12243;42.708;23.310;2022-09-27T08:52:04;15.63;;;14.13;;
16450;SDS011;12243;42.708;23.310;2022-09-27T08:54:39;14.77;;;13.50;;
16450;SDS011;12243;42.708;23.310;2022-09-27T08:57:08;13.80;;;12.60;;
16450;SDS011;12243;42.708;23.310;2022-09-27T08:59:38;14.27;;;12.30;;
16450;SDS011;12243;42.708;23.310;2022-09-27T09:02:12;13.60;;;12.35;;
16450;SDS011;12243;42.708;23.310;2022-09-27T09:04:47;12.98;;;11.88;;
16450;SDS011;12243;42.708;23.310;2022-09-27T09:07:29;13.25;;;12.07;;
16450;SDS011;12243;42.708;23.310;2022-09-27T09:10:22;11.93;;;10.93;;
16450;SDS011;12243;42.708;23.310;2022-09-27T09:13:25;12.43;;;11.32;;
16450;SDS011;12243;42.708;23.310;2022-09-27T09:16:15;11.90;;;10.68;;
16450;SDS011;12243;42.708;23.310;2022-09-27T09:18:59;10.50;;;9.52;;
16450;SDS011;12243;42.708;23.310;2022-09-27T09:22:17;9.93;;;8.93;;
16450;SDS011;12243;42.708;23.310;2022-09-27T09:25:01;10.43;;;9.35;;
16450;SDS011;12243;42.708;23.310;2022-09-27T09:27:41;8.13;;;7.32;;
16450;SDS011;12243;42.708;23.310;2022-09-27T09:30:17;8.93;;;8.05;;
16450;SDS011;12243;42.708;23.310;2022-09-27T09:32:57;9.63;;;8.73;;
16450;SDS011;12243;42.708;23.310;2022-09-27T09:35:35;10.18;;;8.88;;
16450;SDS011;12243;42.708;23.310;2022-09-27T09:38:10;9.10;;;8.27;;
16450;SDS011;12243;42.708;23.310;2022-09-27T09:40:44;10.75;;;9.73;;
16450;SDS011;12243;42.708;23.310;2022-09-27T09:43:18;9.85;;;8.90;;
16450;SDS011;12243;42.708;23.310;2022-09-27T09:45:53;9.88;;;9.00;;
16450;SDS011;12243;42.708;23.310;2022-09-27T09:48:27;11.88;;;8.70;;
16450;SDS011;12243;42.708;23.310;2022-09-27T09:50:58;10.20;;;9.23;;
16450;SDS011;12243;42.708;23.310;2022-09-27T09:53:33;9.35;;;8.65;;
16450;SDS011;12243;42.708;23.310;2022-09-27T09:56:09;10.30;;;9.30;;
16450;SDS011;12243;42.708;23.310;2022-09-27T09:58:45;10.02;;;9.18;;
16450;SDS011;12243;42.708;23.310;2022-09-27T10:01:19;9.13;;;8.38;;
16450;SDS011;12243;42.708;23.310;2022-09-27T10:03:48;9.73;;;8.80;;
16450;SDS011;12243;42.708;23.310;2022-09-27T10:06:17;8.43;;;7.82;;
16450;SDS011;12243;42.708;23.310;2022-09-27T10:08:47;9.95;;;8.95;;
16450;SDS011;12243;42.708;23.310;2022-09-27T10:11:31;9.85;;;8.98;;
16450;SDS011;12243;42.708;23.310;2022-09-27T10:14:29;9.27;;;8.48;;
16450;SDS011;12243;42.708;23.310;2022-09-27T10:17:02;8.15;;;7.55;;
16450;SDS011;12243;42.708;23.310;2022-09-27T10:19:35;8.30;;;7.50;;
16450;SDS011;12243;42.708;23.310;2022-09-27T10:22:09;7.90;;;7.30;;
16450;SDS011;12243;42.708;23.310;2022-09-27T10:24:53;9.18;;;8.48;;
16450;SDS011;12243;42.708;23.310;2022-09-27T10:27:45;7.85;;;7.15;;
16450;SDS011;12243;42.708;23.310;2022-09-27T10:30:20;8.65;;;7.95;;
16450;SDS011;12243;42.708;23.310;2022-09-27T10:32:50;8.98;;;8.15;;
16450;SDS011;12243;42.708;23.310;2022-09-27T10:35:41;9.23;;;8.25;;
16450;SDS011;12243;42.708;23.310;2022-09-27T10:38:21;8.38;;;7.57;;
16450;SDS011;12243;42.708;23.310;2022-09-27T10:40:57;7.82;;;6.30;;
16450;SDS011;12243;42.708;23.310;2022-09-27T10:43:41;7.93;;;7.28;;
16450;SDS011;12243;42.708;23.310;2022-09-27T10:46:22;8.55;;;7.75;;
16450;SDS011;12243;42.708;23.310;2022-09-27T10:49:07;7.43;;;6.85;;
16450;SDS011;12243;42.708;23.310;2022-09-27T10:51:37;7.53;;;6.75;;
16450;SDS011;12243;42.708;23.310;2022-09-27T10:54:05;7.28;;;6.78;;
16450;SDS011;12243;42.708;23.310;2022-09-27T10:56:46;7.30;;;6.80;;
16450;SDS011;12243;42.708;23.310;2022-09-27T10:59:22;7.57;;;6.97;;
16450;SDS011;12243;42.708;23.310;2022-09-27T11:01:51;6.63;;;6.03;;
16450;SDS011;12243;42.708;23.310;2022-09-27T11:04:32;7.13;;;6.47;;
16450;SDS011;12243;42.708;23.310;2022-09-27T11:07:13;7.55;;;6.82;;
16450;SDS011;12243;42.708;23.310;2022-09-27T11:09:48;7.70;;;7.00;;
16450;SDS011;12243;42.708;23.310;2022-09-27T11:12:18;9.25;;;7.22;;
16450;SDS011;12243;42.708;23.310;2022-09-27T11:14:50;6.80;;;6.30;;
16450;SDS011;12243;42.708;23.310;2022-09-27T11:17:24;7.65;;;6.97;;
16450;SDS011;12243;42.708;23.310;2022-09-27T11:20:06;7.25;;;6.65;;
16450;SDS011;12243;42.708;23.310;2022-09-27T11:22:57;7.88;;;7.28;;
16450;SDS011;12243;42.708;23.310;2022-09-27T11:25:58;7.70;;;6.50;;
16450;SDS011;12243;42.708;23.310;2022-09-27T11:28:40;9.30;;;8.32;;
16450;SDS011;12243;42.708;23.310;2022-09-27T11:31:42;7.28;;;6.57;;
16450;SDS011;12243;42.708;23.310;2022-09-27T11:34:26;7.68;;;6.97;;
16450;SDS011;12243;42.708;23.310;2022-09-27T11:37:07;8.10;;;6.10;;
16450;SDS011;12243;42.708;23.310;2022-09-27T11:39:46;6.55;;;6.00;;
16450;SDS011;12243;42.708;23.310;2022-09-27T11:42:40;4.10;;;3.72;;
16450;SDS011;12243;42.708;23.310;2022-09-27T11:45:32;5.68;;;5.25;;
16450;SDS011;12243;42.708;23.310;2022-09-27T11:48:12;7.35;;;5.47;;
16450;SDS011;12243;42.708;23.310;2022-09-27T11:50:54;5.78;;;5.20;;
16450;SDS011;12243;42.708;23.310;2022-09-27T11:53:36;5.88;;;5.30;;
16450;SDS011;12243;42.708;23.310;2022-09-27T11:56:22;4.90;;;4.40;;
16450;SDS011;12243;42.708;23.310;2022-09-27T11:59:02;4.68;;;4.38;;
16450;SDS011;12243;42.708;23.310;2022-09-27T12:01:59;5.20;;;4.63;;
16450;SDS011;12243;42.708;23.310;2022-09-27T12:04:50;5.07;;;4.65;;
16450;SDS011;12243;42.708;23.310;2022-09-27T12:07:30;4.70;;;4.30;;
16450;SDS011;12243;42.708;23.310;2022-09-27T12:10:07;4.60;;;4.30;;
16450;SDS011;12243;42.708;23.310;2022-09-27T12:12:38;6.25;;;3.88;;
16450;SDS011;12243;42.708;23.310;2022-09-27T12:15:12;5.82;;;4.95;;
16450;SDS011;12243;42.708;23.310;2022-09-27T12:17:44;5.40;;;5.00;;
16450;SDS011;12243;42.708;23.310;2022-09-27T12:20:16;5.57;;;5.18;;
16450;SDS011;12243;42.708;23.310;2022-09-27T12:22:50;5.65;;;5.03;;
16450;SDS011;12243;42.708;23.310;2022-09-27T12:25:29;5.50;;;5.00;;
16450;SDS011;12243;42.708;23.310;2022-09-27T12:28:09;9.13;;;4.95;;
16450;SDS011;12243;42.708;23.310;2022-09-27T12:30:47;4.57;;;4.18;;
16450;SDS011;12243;42.708;23.310;2022-09-27T12:33:25;5.07;;;4.63;;
16450;SDS011;12243;42.708;23.310;2022-09-27T12:35:56;4.32;;;3.78;;
16450;SDS011;12243;42.708;23.310;2022-09-27T12:38:34;4.85;;;3.92;;
16450;SDS011;12243;42.708;23.310;2022-09-27T12:41:06;4.28;;;3.92;;
16450;SDS011;12243;42.708;23.310;2022-09-27T12:43:48;5.40;;;3.65;;
16450;SDS011;12243;42.708;23.310;2022-09-27T12:46:24;4.10;;;3.78;;
16450;SDS011;12243;42.708;23.310;2022-09-27T12:49:04;4.28;;;3.53;;
16450;SDS011;12243;42.708;23.310;2022-09-27T12:51:38;3.63;;;3.33;;
16450;SDS011;12243;42.708;23.310;2022-09-27T12:57:12;2.80;;;2.60;;
16450;SDS011;12243;42.708;23.310;2022-09-27T12:59:59;4.18;;;3.80;;
16450;SDS011;12243;42.708;23.310;2022-09-27T13:06:01;3.75;;;3.45;;
16450;SDS011;12243;42.708;23.310;2022-09-27T13:12:00;6.38;;;3.20;;
16450;SDS011;12243;42.708;23.310;2022-09-27T13:14:38;4.10;;;3.50;;
16450;SDS011;12243;42.708;23.310;2022-09-27T13:26:44;3.65;;;3.05;;
16450;SDS011;12243;42.708;23.310;2022-09-27T13:29:23;2.65;;;2.45;;
16450;SDS011;12243;42.708;23.310;2022-09-27T13:32:00;3.05;;;2.85;;
16450;SDS011;12243;42.708;23.310;2022-09-27T13:34:51;4.32;;;2.00;;
16450;SDS011;12243;42.708;23.310;2022-09-27T13:40:40;3.80;;;2.10;;
16450;SDS011;12243;42.708;23.310;2022-09-27T13:43:32;2.30;;;2.20;;
16450;SDS011;12243;42.708;23.310;2022-09-27T13:46:27;1.45;;;1.38;;
16450;SDS011;12243;42.708;23.310;2022-09-27T13:48:56;2.03;;;1.92;;
16450;SDS011;12243;42.708;23.310;2022-09-27T13:51:39;2.60;;;2.40;;
16450;SDS011;12243;42.708;23.310;2022-09-27T13:57:04;2.10;;;2.00;;
16450;SDS011;12243;42.708;23.310;2022-09-27T13:59:53;3.97;;;1.95;;
16450;SDS011;12243;42.708;23.310;2022-09-27T14:02:54;2.20;;;1.73;;
16450;SDS011;12243;42.708;23.310;2022-09-27T14:05:27;3.65;;;1.95;;
16450;SDS011;12243;42.708;23.310;2022-09-27T14:07:59;1.70;;;1.60;;
16450;SDS011;12243;42.708;23.310;2022-09-27T14:10:29;1.88;;;1.77;;
16450;SDS011;12243;42.708;23.310;2022-09-27T14:12:59;3.40;;;1.77;;
16450;SDS011;12243;42.708;23.310;2022-09-27T14:15:40;2.30;;;1.85;;
16450;SDS011;12243;42.708;23.310;2022-09-27T14:18:10;2.08;;;1.85;;
16450;SDS011;12243;42.708;23.310;2022-09-27T14:20:39;2.13;;;1.92;;
16450;SDS011;12243;42.708;23.310;2022-09-27T14:23:25;2.80;;;2.40;;
16450;SDS011;12243;42.708;23.310;2022-09-27T14:25:53;2.45;;;2.33;;
16450;SDS011;12243;42.708;23.310;2022-09-27T14:28:23;2.65;;;2.55;;
16450;SDS011;12243;42.708;23.310;2022-09-27T14:31:23;2.55;;;2.45;;
16450;SDS011;12243;42.708;23.310;2022-09-27T14:34:12;2.88;;;2.60;;
16450;SDS011;12243;42.708;23.310;2022-09-27T14:36:47;3.20;;;3.00;;
16450;SDS011;12243;42.708;23.310;2022-09-27T14:39:55;5.88;;;3.13;;
16450;SDS011;12243;42.708;23.310;2022-09-27T14:42:31;6.20;;;3.35;;
16450;SDS011;12243;42.708;23.310;2022-09-27T14:45:02;4.30;;;3.80;;
16450;SDS011;12243;42.708;23.310;2022-09-27T14:47:33;3.70;;;3.45;;
16450;SDS011;12243;42.708;23.310;2022-09-27T14:50:01;4.13;;;3.67;;
16450;SDS011;12243;42.708;23.310;2022-09-27T14:52:43;6.68;;;3.72;;
16450;SDS011;12243;42.708;23.310;2022-09-27T14:55:14;5.28;;;3.80;;
16450;SDS011;12243;42.708;23.310;2022-09-27T14:57:46;4.95;;;3.78;;
16450;SDS011;12243;42.708;23.310;2022-09-27T15:00:15;3.85;;;3.42;;
16450;SDS011;12243;42.708;23.310;2022-09-27T15:02:46;4.70;;;3.58;;
16450;SDS011;12243;42.708;23.310;2022-09-27T15:05:20;11.57;;;4.13;;
16450;SDS011;12243;42.708;23.310;2022-09-27T15:07:51;6.28;;;4.75;;
16450;SDS011;12243;42.708;23.310;2022-09-27T15:10:20;21.60;;;6.80;;
16450;SDS011;12243;42.708;23.310;2022-09-27T15:12:49;12.20;;;3.85;;
16450;SDS011;12243;42.708;23.310;2022-09-27T15:15:20;7.20;;;2.90;;
16450;SDS011;12243;42.708;23.310;2022-09-27T15:17:50;8.23;;;3.08;;
16450;SDS011;12243;42.708;23.310;2022-09-27T15:20:20;4.70;;;2.65;;
16450;SDS011;12243;42.708;23.310;2022-09-27T15:22:48;11.45;;;3.20;;
16450;SDS011;12243;42.708;23.310;2022-09-27T15:25:18;8.00;;;3.80;;
16450;SDS011;12243;42.708;23.310;2022-09-27T15:27:51;9.30;;;3.80;;
16450;SDS011;12243;42.708;23.310;2022-09-27T15:30:24;7.17;;;4.20;;
16450;SDS011;12243;42.708;23.310;2022-09-27T15:32:54;13.23;;;3.67;;
16450;SDS011;12243;42.708;23.310;2022-09-27T15:35:22;3.37;;;3.03;;
16450;SDS011;12243;42.708;23.310;2022-09-27T15:37:54;4.17;;;3.17;;
16450;SDS011;12243;42.708;23.310;2022-09-27T15:43:39;5.40;;;2.93;;
16450;SDS011;12243;42.708;23.310;2022-09-27T15:46:32;16.43;;;7.73;;